Time;durP1;ratioP1;P1;durP2;ratioP2;P2;SDS_P1;SDS_P2;PMS_P1;PMS_P2;Temp;Humidity;BMP_temperature;BMP_pressure;BME280_temperature;BME280_humidity;BME280_pressure;Samples;Min_cycle;Max_cycle;Signal;HPM_P1;HPM_P2
2022/09/20 00:00:46;;;;;;;7.13;3.33;;;14.00;99.90;;;;;;4970938;28;20026;-60
2022/09/20 00:03:14;;;;;;;5.45;2.67;;;13.90;99.90;;;;;;4967510;28;20027;-60
2022/09/20 00:05:43;;;;;;;4.95;2.92;;;13.80;99.90;;;;;;4969551;28;20125;-60
2022/09/20 00:08:14;;;;;;;6.95;2.88;;;13.90;99.90;;;;;;4968908;28;20078;-60
2022/09/20 00:10:41;;;;;;;4.80;3.00;;;13.90;99.90;;;;;;4969496;28;20089;-60
2022/09/20 00:13:10;;;;;;;3.67;2.92;;;13.90;99.90;;;;;;4968357;28;20027;-60
2022/09/20 00:15:41;;;;;;;5.45;2.80;;;13.90;99.90;;;;;;4969903;28;20066;-60
2022/09/20 00:18:10;;;;;;;3.35;2.33;;;13.80;99.90;;;;;;4968299;28;20038;-61
2022/09/20 00:20:36;;;;;;;6.72;2.88;;;13.80;99.90;;;;;;4974929;28;20061;-60
2022/09/20 00:23:02;;;;;;;4.68;2.70;;;13.70;99.90;;;;;;4975137;28;20037;-61
2022/09/20 00:25:28;;;;;;;5.45;3.17;;;13.70;99.90;;;;;;4976101;28;20023;-61
2022/09/20 00:27:54;;;;;;;4.95;3.13;;;13.70;99.90;;;;;;4976134;28;20081;-60
2022/09/20 00:30:20;;;;;;;5.00;2.80;;;13.60;99.90;;;;;;4974786;28;20422;-60
2022/09/20 00:32:46;;;;;;;4.88;3.30;;;13.70;99.90;;;;;;4977196;28;20030;-60
2022/09/20 00:35:11;;;;;;;6.15;2.55;;;13.70;99.90;;;;;;4974116;28;20035;-60
2022/09/20 00:37:40;;;;;;;5.22;2.90;;;13.70;99.90;;;;;;4976097;28;20042;-62
2022/09/20 00:40:08;;;;;;;6.82;2.38;;;13.70;99.90;;;;;;4974626;28;20027;-60
2022/09/20 00:42:34;;;;;;;7.00;2.80;;;13.60;99.90;;;;;;4975740;28;20039;-62
2022/09/20 00:45:10;;;;;;;4.43;2.65;;;13.60;99.90;;;;;;4973417;28;20034;-61
2022/09/20 00:47:51;;;;;;;2.97;2.63;;;13.60;99.90;;;;;;4975221;28;20367;-60
2022/09/20 00:50:28;;;;;;;4.07;2.40;;;13.60;99.90;;;;;;4969754;28;20084;-60
2022/09/20 00:53:03;;;;;;;4.95;2.63;;;13.60;99.90;;;;;;4976016;28;21535;-60
2022/09/20 00:55:29;;;;;;;4.85;2.30;;;13.60;99.90;;;;;;4974260;28;20042;-61
2022/09/20 00:57:56;;;;;;;5.38;2.10;;;13.50;99.90;;;;;;4975536;28;20317;-61
2022/09/20 01:00:22;;;;;;;3.33;2.30;;;13.50;99.90;;;;;;4970395;28;20031;-61
2022/09/20 01:02:52;;;;;;;3.92;2.42;;;13.60;99.90;;;;;;4974876;28;20019;-60
2022/09/20 01:05:19;;;;;;;7.75;2.53;;;13.60;99.90;;;;;;4973864;28;20110;-62
2022/09/20 01:07:47;;;;;;;3.00;2.38;;;13.60;99.90;;;;;;4975927;28;20045;-61
2022/09/20 01:10:13;;;;;;;3.20;2.55;;;13.70;99.90;;;;;;4974779;28;20362;-60
2022/09/20 01:12:45;;;;;;;4.72;2.72;;;13.80;99.90;;;;;;4973493;28;20030;-61
2022/09/20 01:15:14;;;;;;;3.10;2.42;;;13.70;99.90;;;;;;4964469;28;20069;-61
2022/09/20 01:17:47;;;;;;;4.72;2.35;;;13.70;99.90;;;;;;4975074;28;20035;-61
2022/09/20 01:20:28;;;;;;;3.78;2.20;;;13.70;99.90;;;;;;4968617;28;20314;-60
2022/09/20 01:22:56;;;;;;;3.97;2.40;;;13.60;99.90;;;;;;4973842;28;20030;-61
2022/09/20 01:25:53;;;;;;;4.30;2.30;;;13.60;99.90;;;;;;4976046;28;20106;-60
2022/09/20 01:28:20;;;;;;;3.05;2.15;;;13.60;99.90;;;;;;4972725;28;20030;-60
2022/09/20 01:30:48;;;;;;;3.83;2.20;;;13.50;99.90;;;;;;4974416;28;20041;-61
2022/09/20 01:33:32;;;;;;;4.93;2.67;;;13.40;99.90;;;;;;4969735;28;20070;-61
2022/09/20 01:36:03;;;;;;;4.80;2.70;;;13.40;99.90;;;;;;4971475;28;20039;-61
2022/09/20 01:39:06;;;;;;;2.72;2.00;;;13.50;99.90;;;;;;4972390;28;20546;-60
2022/09/20 01:41:44;;;;;;;4.75;2.30;;;13.50;99.90;;;;;;4971229;28;20110;-60
2022/09/20 01:44:28;;;;;;;3.30;1.52;;;13.50;99.90;;;;;;4968842;28;20134;-64
2022/09/20 01:47:08;;;;;;;5.32;1.88;;;13.50;99.90;;;;;;4966898;28;20097;-60
2022/09/20 01:50:03;;;;;;;2.10;1.35;;;13.50;99.90;;;;;;4969272;28;20111;-60
2022/09/20 01:52:41;;;;;;;2.05;1.35;;;13.50;99.90;;;;;;4986788;28;20058;-60
2022/09/20 01:55:24;;;;;;;2.97;1.30;;;13.40;99.90;;;;;;4970998;28;20058;-60
2022/09/20 01:58:07;;;;;;;4.30;1.48;;;13.40;99.90;;;;;;4966734;28;20043;-61
2022/09/20 02:00:52;;;;;;;1.83;1.33;;;13.40;99.90;;;;;;4968033;28;20033;-60
2022/09/20 02:03:45;;;;;;;3.42;1.48;;;13.40;99.90;;;;;;4968521;28;20027;-60
2022/09/20 02:06:28;;;;;;;2.42;1.52;;;13.30;99.90;;;;;;4970120;28;20509;-60
2022/09/20 02:09:06;;;;;;;2.63;1.70;;;13.10;99.90;;;;;;4971471;28;20399;-60
2022/09/20 02:11:50;;;;;;;3.20;1.98;;;13.30;99.90;;;;;;4972710;28;20105;-60
2022/09/20 02:14:34;;;;;;;4.28;2.10;;;13.30;99.90;;;;;;4969828;28;20502;-60
2022/09/20 02:17:12;;;;;;;2.13;1.80;;;13.30;99.90;;;;;;4970377;28;20070;-60
2022/09/20 02:20:06;;;;;;;2.40;1.50;;;13.20;99.90;;;;;;4970063;28;20035;-60
2022/09/20 02:22:52;;;;;;;3.50;1.83;;;13.20;99.90;;;;;;4971559;28;20557;-60
2022/09/20 02:25:57;;;;;;;2.90;1.92;;;13.10;99.90;;;;;;4985197;28;20086;-60
2022/09/20 02:28:37;;;;;;;5.20;2.30;;;13.10;99.90;;;;;;4963016;28;20039;-60
2022/09/20 02:31:21;;;;;;;2.35;1.52;;;13.00;99.90;;;;;;4966527;28;20027;-60
2022/09/20 02:34:10;;;;;;;3.53;2.20;;;13.00;99.90;;;;;;4969375;28;20257;-60
2022/09/20 02:37:19;;;;;;;3.83;2.03;;;12.80;99.90;;;;;;4965643;28;20066;-61
2022/09/20 02:40:10;;;;;;;2.30;1.80;;;12.70;99.90;;;;;;4970370;28;20061;-60
2022/09/20 02:42:56;;;;;;;3.42;1.95;;;12.60;99.90;;;;;;4963851;28;20047;-60
2022/09/20 02:45:36;;;;;;;5.22;2.63;;;12.60;99.90;;;;;;4971983;28;20035;-60
2022/09/20 02:48:05;;;;;;;3.10;1.85;;;12.40;99.90;;;;;;4968382;28;20033;-60
2022/09/20 02:51:05;;;;;;;3.30;2.03;;;12.30;99.90;;;;;;4967134;28;20031;-60
2022/09/20 02:53:49;;;;;;;5.07;2.00;;;12.30;99.90;;;;;;4965845;28;20058;-60
2022/09/20 02:56:35;;;;;;;5.25;2.17;;;12.20;99.90;;;;;;4963310;28;20133;-60
2022/09/20 02:59:13;;;;;;;3.50;2.25;;;12.10;99.90;;;;;;4968771;28;20034;-59
2022/09/20 03:01:50;;;;;;;2.50;1.90;;;12.00;99.90;;;;;;4970274;28;20089;-60
2022/09/20 03:04:28;;;;;;;3.28;1.33;;;11.90;99.90;;;;;;4961727;28;20549;-61
2022/09/20 03:07:14;;;;;;;5.88;2.50;;;11.80;99.90;;;;;;4971470;28;20039;-61
2022/09/20 03:09:48;;;;;;;2.63;1.90;;;11.80;99.90;;;;;;4969738;28;20431;-60
2022/09/20 03:12:16;;;;;;;3.42;2.33;;;11.80;99.90;;;;;;4968054;28;20112;-61
2022/09/20 03:14:59;;;;;;;4.90;2.40;;;11.70;99.90;;;;;;4967085;28;20467;-60
2022/09/20 03:17:56;;;;;;;4.18;2.15;;;11.70;99.90;;;;;;4969969;28;20031;-60
2022/09/20 03:20:31;;;;;;;5.45;2.47;;;11.70;99.90;;;;;;4970048;28;20035;-60
2022/09/20 03:23:17;;;;;;;3.65;2.28;;;11.70;99.90;;;;;;4969732;28;20070;-60
2022/09/20 03:25:58;;;;;;;4.80;2.72;;;11.60;99.90;;;;;;4968453;28;20246;-60
2022/09/20 03:28:33;;;;;;;4.85;2.78;;;11.50;99.90;;;;;;4969517;28;20125;-59
2022/09/20 03:31:19;;;;;;;4.10;2.50;;;11.50;99.90;;;;;;4969199;28;20026;-60
2022/09/20 03:33:58;;;;;;;3.67;2.40;;;11.50;99.90;;;;;;4970376;28;20205;-61
2022/09/20 03:36:46;;;;;;;4.55;2.60;;;11.50;99.90;;;;;;4963067;28;20069;-60
2022/09/20 03:39:11;;;;;;;4.68;2.90;;;11.50;99.90;;;;;;4974832;28;20035;-60
2022/09/20 03:41:46;;;;;;;4.63;2.90;;;11.50;99.90;;;;;;4970646;28;20406;-62
2022/09/20 03:44:38;;;;;;;6.78;2.90;;;11.40;99.90;;;;;;4966694;28;20038;-60
2022/09/20 03:47:48;;;;;;;6.05;2.60;;;11.40;99.90;;;;;;4958797;28;20414;-61
2022/09/20 03:50:40;;;;;;;6.25;2.85;;;11.40;99.90;;;;;;4938254;29;20039;-61
2022/09/20 03:53:45;;;;;;;4.40;2.83;;;11.40;99.90;;;;;;4941600;28;20043;-60
2022/09/20 03:56:10;;;;;;;5.00;2.90;;;11.30;99.90;;;;;;4946918;29;20047;-61
2022/09/20 03:59:07;;;;;;;4.53;2.58;;;11.30;99.90;;;;;;4948393;29;20050;-60
2022/09/20 04:01:44;;;;;;;4.63;3.17;;;11.30;99.90;;;;;;4947532;29;20039;-60
2022/09/20 04:04:43;;;;;;;5.93;3.50;;;11.20;99.90;;;;;;4946058;29;20035;-60
2022/09/20 04:07:23;;;;;;;6.60;3.50;;;11.20;99.90;;;;;;4946509;29;20039;-60
2022/09/20 04:10:50;;;;;;;5.65;3.50;;;11.20;99.90;;;;;;4946740;29;20054;-59
2022/09/20 04:13:36;;;;;;;5.50;3.50;;;11.20;99.90;;;;;;4899418;29;20037;-60
2022/09/20 04:16:39;;;;;;;6.35;3.40;;;11.20;99.90;;;;;;4898946;29;20032;-60
2022/09/20 04:19:19;;;;;;;6.63;3.53;;;11.20;99.90;;;;;;4904480;29;20050;-60
2022/09/20 04:22:01;;;;;;;6.25;3.35;;;11.10;99.90;;;;;;4909809;29;20476;-61
2022/09/20 04:24:29;;;;;;;7.05;4.00;;;11.10;99.90;;;;;;4909893;29;20126;-61
2022/09/20 04:27:09;;;;;;;7.18;3.75;;;11.10;99.90;;;;;;4909381;29;20047;-61
2022/09/20 04:29:38;;;;;;;8.00;3.65;;;11.10;99.90;;;;;;4910682;29;20024;-61
2022/09/20 04:32:39;;;;;;;7.93;4.05;;;11.10;99.90;;;;;;4909238;29;20036;-61
2022/09/20 04:38:09;;;;;;;9.20;4.15;;;11.10;99.90;;;;;;4906583;29;20226;-60
2022/09/20 04:40:53;;;;;;;7.10;4.05;;;11.00;99.90;;;;;;4910513;29;20032;-59
2022/09/20 04:43:39;;;;;;;5.20;3.60;;;11.00;99.90;;;;;;4930058;28;20046;-60
2022/09/20 04:46:30;;;;;;;8.27;3.92;;;10.90;99.90;;;;;;4968471;28;20035;-59
2022/09/20 04:49:25;;;;;;;6.53;3.60;;;11.00;99.90;;;;;;4970272;28;20038;-59
2022/09/20 04:52:22;;;;;;;5.97;3.60;;;10.90;99.90;;;;;;4964952;28;20042;-59
2022/09/20 04:55:02;;;;;;;7.88;4.72;;;10.90;99.90;;;;;;4968124;28;20035;-60
2022/09/20 04:58:03;;;;;;;7.90;3.90;;;10.80;99.90;;;;;;4962893;28;20047;-61
2022/09/20 05:00:57;;;;;;;8.13;4.53;;;10.80;99.90;;;;;;4961597;28;20027;-60
2022/09/20 05:03:50;;;;;;;7.05;4.45;;;10.80;99.90;;;;;;4968023;28;20399;-59
2022/09/20 05:06:54;;;;;;;6.70;4.15;;;10.80;99.90;;;;;;4967266;28;20479;-60
2022/09/20 05:09:34;;;;;;;7.38;4.60;;;10.70;99.90;;;;;;4956436;28;20099;-60
2022/09/20 05:12:15;;;;;;;7.18;3.72;;;10.70;99.90;;;;;;4970287;28;20051;-61
2022/09/20 05:14:59;;;;;;;7.47;4.30;;;10.70;99.90;;;;;;4973975;28;20039;-60
2022/09/20 05:17:33;;;;;;;7.40;4.07;;;10.70;99.90;;;;;;4972585;28;20027;-60
2022/09/20 05:20:14;;;;;;;9.32;5.63;;;10.70;99.90;;;;;;4970440;28;20447;-60
2022/09/20 05:22:54;;;;;;;7.93;4.38;;;10.70;99.90;;;;;;4967877;28;20029;-60
2022/09/20 05:25:44;;;;;;;10.35;5.35;;;10.70;99.90;;;;;;4971694;28;20039;-60
2022/09/20 05:28:31;;;;;;;10.68;5.43;;;10.70;99.90;;;;;;4969149;28;20034;-60
2022/09/20 05:31:01;;;;;;;9.98;4.82;;;10.80;99.90;;;;;;4970378;28;20394;-61
2022/09/20 05:33:39;;;;;;;8.60;4.85;;;10.90;99.90;;;;;;4973315;28;20026;-60
2022/09/20 05:36:18;;;;;;;7.32;4.63;;;10.90;99.90;;;;;;4970431;28;20502;-60
2022/09/20 05:38:53;;;;;;;9.18;4.63;;;10.90;99.90;;;;;;4973203;28;20031;-60
2022/09/20 05:41:23;;;;;;;8.73;4.28;;;11.00;99.90;;;;;;4962510;28;20403;-60
2022/09/20 05:44:20;;;;;;;9.80;4.93;;;11.00;99.90;;;;;;4971836;28;20043;-59
2022/09/20 05:46:55;;;;;;;10.35;5.20;;;11.10;99.90;;;;;;4971377;28;20073;-60
2022/09/20 05:49:39;;;;;;;9.13;5.10;;;11.10;99.90;;;;;;4968468;28;20049;-60
2022/09/20 05:52:32;;;;;;;8.88;4.55;;;11.10;99.90;;;;;;4970851;28;20035;-60
2022/09/20 05:55:42;;;;;;;11.60;5.43;;;11.30;99.90;;;;;;4967046;28;20062;-59
2022/09/20 05:58:29;;;;;;;8.93;4.88;;;11.30;99.90;;;;;;4949452;28;20380;-61
2022/09/20 06:01:20;;;;;;;8.45;4.35;;;11.30;99.90;;;;;;4971404;28;20046;-60
2022/09/20 06:04:09;;;;;;;8.82;4.72;;;11.40;99.90;;;;;;4972006;28;20066;-61
2022/09/20 06:07:00;;;;;;;7.43;4.18;;;11.40;99.90;;;;;;4962939;28;20221;-61
2022/09/20 06:09:49;;;;;;;7.40;4.32;;;11.40;99.90;;;;;;4963123;28;20035;-61
2022/09/20 06:12:22;;;;;;;8.48;4.38;;;11.30;99.90;;;;;;4968841;28;20081;-61
2022/09/20 06:15:02;;;;;;;5.95;4.20;;;11.30;99.90;;;;;;4968352;28;20023;-59
2022/09/20 06:17:56;;;;;;;9.23;4.82;;;11.30;99.90;;;;;;4970028;28;20038;-60
2022/09/20 06:20:38;;;;;;;6.22;3.72;;;11.30;99.90;;;;;;4967979;28;20023;-60
2022/09/20 06:23:04;;;;;;;8.20;5.05;;;11.30;99.90;;;;;;4971059;28;20491;-60
2022/09/20 06:25:36;;;;;;;11.73;5.55;;;11.30;99.90;;;;;;4972843;28;20050;-60
2022/09/20 06:28:11;;;;;;;9.40;4.78;;;11.30;99.90;;;;;;4970137;28;20081;-60
2022/09/20 06:30:42;;;;;;;7.47;4.32;;;11.30;99.90;;;;;;4971377;28;20049;-61
2022/09/20 06:33:11;;;;;;;9.43;4.50;;;11.40;99.90;;;;;;4971417;28;20112;-66
2022/09/20 06:35:43;;;;;;;6.88;4.80;;;11.40;99.90;;;;;;4969030;28;20315;-61
2022/09/20 06:41:29;;;;;;;11.75;3.97;;;11.40;99.90;;;;;;4968459;28;20038;-61
2022/09/20 06:43:59;;;;;;;7.32;3.90;;;11.40;99.90;;;;;;4969801;28;20498;-61
2022/09/20 06:46:31;;;;;;;11.68;5.03;;;11.50;99.90;;;;;;4967973;28;20423;-61
2022/09/20 06:48:57;;;;;;;9.82;4.15;;;11.60;99.90;;;;;;4971230;28;20023;-61
2022/09/20 06:51:25;;;;;;;8.45;4.53;;;11.60;99.90;;;;;;4970788;28;20046;-61
2022/09/20 06:53:52;;;;;;;11.23;4.38;;;11.50;99.90;;;;;;4971790;28;20026;-61
2022/09/20 06:56:38;;;;;;;8.18;4.25;;;11.50;99.90;;;;;;4969317;28;20042;-60
2022/09/20 06:59:07;;;;;;;7.70;3.78;;;11.50;99.90;;;;;;4967533;28;20564;-61
2022/09/20 07:01:33;;;;;;;9.82;4.88;;;11.60;99.90;;;;;;4971123;28;20038;-60
2022/09/20 07:03:58;;;;;;;6.78;3.30;;;11.70;99.90;;;;;;4969639;28;20118;-60
2022/09/20 07:06:25;;;;;;;13.00;4.82;;;11.70;99.90;;;;;;4971737;28;20042;-62
2022/09/20 07:08:51;;;;;;;10.00;4.57;;;11.80;99.90;;;;;;4970608;28;20027;-61
2022/09/20 07:11:17;;;;;;;8.40;4.63;;;11.90;99.90;;;;;;4969705;28;20549;-61
2022/09/20 07:13:44;;;;;;;6.80;4.32;;;11.90;99.90;;;;;;4971208;28;20129;-60
2022/09/20 07:16:15;;;;;;;9.23;4.18;;;12.00;99.90;;;;;;4970035;28;20477;-61
2022/09/20 07:18:41;;;;;;;8.25;4.40;;;12.10;99.90;;;;;;4971260;28;20058;-61
2022/09/20 07:21:15;;;;;;;8.77;4.22;;;12.10;99.90;;;;;;4969408;28;20074;-61
2022/09/20 07:23:42;;;;;;;6.50;3.97;;;12.20;99.90;;;;;;4971403;28;20038;-61
2022/09/20 07:26:21;;;;;;;9.18;4.65;;;12.20;99.90;;;;;;4967921;28;20039;-61
2022/09/20 07:28:48;;;;;;;9.88;4.00;;;12.20;99.90;;;;;;4974042;28;20509;-61
2022/09/20 07:31:14;;;;;;;7.63;4.03;;;12.30;99.90;;;;;;4969132;28;20115;-60
2022/09/20 07:33:40;;;;;;;9.35;4.20;;;12.30;99.90;;;;;;4970890;28;20533;-61
2022/09/20 07:36:06;;;;;;;7.38;3.60;;;12.40;99.90;;;;;;4965628;28;20042;-61
2022/09/20 07:38:31;;;;;;;8.48;4.38;;;12.40;99.90;;;;;;4971111;28;20379;-60
2022/09/20 07:41:00;;;;;;;6.65;3.50;;;12.50;99.90;;;;;;4968389;28;20117;-61
2022/09/20 07:43:27;;;;;;;8.88;3.80;;;12.60;99.90;;;;;;4964109;28;20053;-60
2022/09/20 07:45:54;;;;;;;9.13;4.53;;;12.60;99.90;;;;;;4968410;28;20498;-61
2022/09/20 07:48:21;;;;;;;7.35;3.17;;;12.70;99.90;;;;;;4962980;28;20023;-62
2022/09/20 07:50:56;;;;;;;7.03;3.38;;;12.80;99.90;;;;;;4955646;28;20042;-60
2022/09/20 07:53:22;;;;;;;7.68;3.67;;;12.90;99.90;;;;;;4963500;28;20175;-62
2022/09/20 07:56:01;;;;;;;5.10;2.90;;;12.90;99.90;;;;;;4965767;28;20047;-61
2022/09/20 07:58:29;;;;;;;4.32;2.70;;;13.00;99.90;;;;;;4965712;28;20023;-61
2022/09/20 08:00:59;;;;;;;6.70;3.03;;;13.00;99.90;;;;;;4965291;28;20031;-60
2022/09/20 08:03:25;;;;;;;4.45;2.45;;;13.10;99.90;;;;;;4964392;28;20027;-59
2022/09/20 08:05:57;;;;;;;6.13;2.78;;;13.20;99.90;;;;;;4958715;28;20487;-61
2022/09/20 08:08:23;;;;;;;5.03;2.92;;;13.20;99.90;;;;;;4968073;28;20034;-61
2022/09/20 08:10:49;;;;;;;6.00;2.75;;;13.30;99.90;;;;;;4965267;28;20039;-61
2022/09/20 08:13:15;;;;;;;4.13;2.28;;;13.40;99.90;;;;;;4961105;28;20030;-61
2022/09/20 08:15:41;;;;;;;2.45;1.90;;;13.50;99.90;;;;;;4965883;28;20197;-61
2022/09/20 08:18:08;;;;;;;3.70;2.10;;;13.60;99.90;;;;;;4969164;28;20041;-61
2022/09/20 08:20:36;;;;;;;4.53;1.95;;;13.70;99.90;;;;;;4964599;28;20030;-61
2022/09/20 08:23:02;;;;;;;3.95;1.77;;;13.80;99.90;;;;;;4966068;28;20035;-61
2022/09/20 08:25:28;;;;;;;4.82;1.50;;;13.90;99.90;;;;;;4964822;28;20034;-60
2022/09/20 08:27:54;;;;;;;2.10;1.88;;;14.00;99.90;;;;;;4967745;28;20776;-60
2022/09/20 08:30:19;;;;;;;2.95;1.73;;;14.00;99.90;;;;;;4963310;28;20086;-61
2022/09/20 08:32:45;;;;;;;5.00;2.45;;;14.10;99.90;;;;;;4967541;28;20039;-61
2022/09/20 08:35:13;;;;;;;3.55;2.17;;;14.20;99.90;;;;;;4980681;28;20027;-60
2022/09/20 08:37:39;;;;;;;2.13;1.60;;;14.30;99.90;;;;;;4968560;28;20035;-61
2022/09/20 08:40:06;;;;;;;1.80;1.55;;;14.40;99.90;;;;;;4966550;28;20073;-60
2022/09/20 08:42:35;;;;;;;2.10;1.40;;;14.40;99.90;;;;;;4969389;28;20059;-60
2022/09/20 08:45:07;;;;;;;2.40;1.60;;;14.60;99.90;;;;;;4969225;28;20069;-61
2022/09/20 08:47:42;;;;;;;2.08;1.17;;;14.70;99.90;;;;;;4972055;28;20027;-61
2022/09/20 08:50:14;;;;;;;4.20;1.65;;;14.90;99.90;;;;;;4963934;28;20065;-60
2022/09/20 08:52:45;;;;;;;3.88;1.60;;;15.00;99.90;;;;;;4971151;28;20031;-61
2022/09/20 08:55:33;;;;;;;4.68;1.92;;;15.10;99.90;;;;;;4961824;28;20031;-60
2022/09/20 08:58:00;;;;;;;3.05;1.90;;;15.20;99.90;;;;;;4969078;28;20038;-61
2022/09/20 09:00:32;;;;;;;3.72;1.10;;;15.30;99.90;;;;;;4964958;28;20031;-61
2022/09/20 09:03:10;;;;;;;2.33;1.38;;;15.40;99.90;;;;;;4970371;28;20465;-61
2022/09/20 09:05:48;;;;;;;1.42;0.65;;;15.50;99.90;;;;;;4966268;28;20078;-61
2022/09/20 09:08:17;;;;;;;1.50;0.90;;;15.50;99.90;;;;;;4962055;28;20086;-60
2022/09/20 09:10:52;;;;;;;2.10;0.80;;;15.60;99.90;;;;;;4966639;28;20035;-61
2022/09/20 09:13:29;;;;;;;1.05;0.88;;;15.70;99.90;;;;;;4968342;28;20916;-63
2022/09/20 09:15:59;;;;;;;3.25;1.00;;;15.70;99.90;;;;;;4958819;28;20518;-62
2022/09/20 09:18:33;;;;;;;1.20;0.75;;;15.80;99.90;;;;;;4969087;28;20031;-61
2022/09/20 09:21:02;;;;;;;1.55;1.10;;;15.80;99.90;;;;;;4966589;28;20142;-62
2022/09/20 09:23:34;;;;;;;1.20;0.85;;;16.10;99.90;;;;;;4967980;28;20022;-61
2022/09/20 09:26:03;;;;;;;1.58;0.93;;;16.20;99.90;;;;;;4967146;28;20050;-59
2022/09/20 09:28:35;;;;;;;2.65;1.33;;;16.20;99.90;;;;;;4958269;28;20031;-61
2022/09/20 09:31:24;;;;;;;2.88;0.80;;;16.20;99.90;;;;;;4965899;28;20035;-61
2022/09/20 09:33:50;;;;;;;1.15;0.65;;;16.20;99.90;;;;;;4966836;28;20050;-62
2022/09/20 09:36:24;;;;;;;1.52;1.13;;;16.20;99.90;;;;;;4965315;28;20079;-62
2022/09/20 09:39:10;;;;;;;2.38;1.30;;;16.10;99.90;;;;;;4964876;28;20078;-61
2022/09/20 09:41:36;;;;;;;2.15;0.95;;;16.10;99.90;;;;;;4967043;28;20122;-60
2022/09/20 09:44:09;;;;;;;1.60;0.95;;;16.20;99.90;;;;;;4964501;28;20141;-61
2022/09/20 09:46:38;;;;;;;2.15;1.00;;;16.20;99.90;;;;;;4968759;28;20039;-60
2022/09/20 09:49:17;;;;;;;2.03;1.30;;;16.30;99.90;;;;;;4965415;28;20142;-60
2022/09/20 09:52:16;;;;;;;22.23;8.43;;;16.30;99.90;;;;;;4966770;28;20033;-61
2022/09/20 09:54:46;;;;;;;1.88;1.00;;;16.50;99.90;;;;;;4969787;28;20490;-61
2022/09/20 09:57:32;;;;;;;2.70;1.15;;;16.60;99.90;;;;;;4966066;28;20077;-62
2022/09/20 10:00:30;;;;;;;1.42;1.13;;;16.70;99.90;;;;;;4962868;28;20023;-61
2022/09/20 10:02:59;;;;;;;2.25;1.00;;;16.90;99.90;;;;;;4961895;28;20038;-60
2022/09/20 10:05:33;;;;;;;1.45;0.88;;;17.00;99.90;;;;;;4964615;28;20150;-61
2022/09/20 10:08:09;;;;;;;1.58;1.10;;;17.20;99.90;;;;;;4961621;28;20102;-61
2022/09/20 10:11:06;;;;;;;2.67;1.05;;;17.30;99.90;;;;;;4963996;28;20077;-61
2022/09/20 10:14:14;;;;;;;0.95;0.80;;;17.50;99.90;;;;;;4966632;28;20030;-60
2022/09/20 10:17:06;;;;;;;2.08;1.23;;;17.70;99.90;;;;;;4965274;28;20035;-61
2022/09/20 10:19:56;;;;;;;1.73;0.70;;;17.60;99.90;;;;;;4966851;28;20170;-61
2022/09/20 10:22:28;;;;;;;1.52;0.75;;;17.90;99.90;;;;;;4963081;28;20093;-59
2022/09/20 10:25:13;;;;;;;0.50;0.50;;;17.80;99.90;;;;;;4967818;28;20134;-60
2022/09/20 10:27:53;;;;;;;0.40;0.40;;;18.00;99.90;;;;;;4964165;28;20089;-60
2022/09/20 10:31:01;;;;;;;0.80;0.68;;;17.90;99.90;;;;;;4965739;28;20035;-60
2022/09/20 10:33:44;;;;;;;1.42;0.70;;;17.90;99.90;;;;;;4950898;28;20091;-61
2022/09/20 10:36:33;;;;;;;1.75;0.93;;;18.00;99.90;;;;;;4963390;28;20122;-62
2022/09/20 10:39:01;;;;;;;1.65;1.23;;;17.90;99.90;;;;;;4962348;28;20540;-62
2022/09/20 10:44:42;;;;;;;0.68;0.60;;;18.00;99.90;;;;;;4968579;28;20557;-62
2022/09/20 10:47:14;;;;;;;0.98;0.45;;;18.30;99.90;;;;;;4968642;28;20108;-62
2022/09/20 10:50:13;;;;;;;0.88;0.52;;;18.50;99.90;;;;;;4965301;28;20540;-61
2022/09/20 10:52:48;;;;;;;1.35;0.65;;;18.60;99.90;;;;;;4964124;28;20023;-62
2022/09/20 10:55:33;;;;;;;0.95;0.68;;;18.40;99.90;;;;;;4965118;28;20490;-61
2022/09/20 10:58:45;;;;;;;1.02;0.77;;;18.50;99.90;;;;;;4963486;28;20440;-60
2022/09/20 11:01:32;;;;;;;0.77;0.45;;;18.20;99.90;;;;;;4964729;28;20041;-60
2022/09/20 11:04:09;;;;;;;0.80;0.50;;;18.60;99.90;;;;;;4967751;28;20045;-61
2022/09/20 11:07:01;;;;;;;0.88;0.70;;;18.90;99.90;;;;;;4966465;28;20085;-64
2022/09/20 11:09:33;;;;;;;2.30;0.65;;;19.20;99.90;;;;;;4961398;28;20114;-60
2022/09/20 11:12:11;;;;;;;1.77;0.68;;;19.70;99.90;;;;;;4961370;28;20037;-61
2022/09/20 11:14:50;;;;;;;2.45;0.60;;;20.00;99.90;;;;;;4968697;28;20054;-61
2022/09/20 11:17:19;;;;;;;1.02;0.70;;;20.40;99.90;;;;;;4963890;28;20550;-60
2022/09/20 11:20:06;;;;;;;1.38;0.40;;;20.90;99.90;;;;;;4964820;28;20035;-62
2022/09/20 11:22:47;;;;;;;0.47;0.32;;;21.30;99.90;;;;;;4959507;28;20038;-61
2022/09/20 11:25:43;;;;;;;1.20;0.70;;;21.90;99.90;;;;;;4964527;28;20031;-62
2022/09/20 11:28:17;;;;;;;1.75;0.45;;;22.30;98.90;;;;;;4963497;28;20127;-62
2022/09/20 11:31:04;;;;;;;0.55;0.55;;;22.30;98.00;;;;;;4967407;28;20439;-61
2022/09/20 11:33:36;;;;;;;2.13;0.70;;;21.80;97.90;;;;;;4965102;28;20027;-61
2022/09/20 11:36:05;;;;;;;1.58;0.65;;;21.10;99.60;;;;;;4965125;28;20035;-62
2022/09/20 11:38:47;;;;;;;0.73;0.60;;;20.80;99.90;;;;;;4964420;28;20033;-62
2022/09/20 11:41:16;;;;;;;;;;;20.40;99.90;;;;;;4966371;28;20049;-62
2022/09/20 11:43:44;;;;;;;1.25;0.50;;;20.30;99.90;;;;;;4953356;28;20365;-65
2022/09/20 11:46:22;;;;;;;1.08;0.80;;;20.20;99.90;;;;;;4966045;28;20064;-61
2022/09/20 11:49:01;;;;;;;1.95;1.02;;;20.00;99.90;;;;;;4967528;28;20023;-61
2022/09/20 11:51:41;;;;;;;1.30;0.70;;;19.80;99.90;;;;;;4965048;28;20035;-61
2022/09/20 11:54:40;;;;;;;1.13;1.02;;;20.00;99.90;;;;;;4963100;28;20110;-62
2022/09/20 11:57:11;;;;;;;0.68;0.68;;;20.20;99.90;;;;;;4961199;28;20043;-61
2022/09/20 11:59:41;;;;;;;0.70;0.55;;;20.20;99.90;;;;;;4956450;28;20399;-61
2022/09/20 12:02:33;;;;;;;2.17;0.98;;;19.90;99.90;;;;;;4961730;28;20411;-61
2022/09/20 12:05:00;;;;;;;0.98;0.50;;;19.70;99.90;;;;;;4958831;28;20141;-61
2022/09/20 12:07:40;;;;;;;1.85;0.95;;;19.50;99.90;;;;;;4962210;28;20027;-60
2022/09/20 12:10:26;;;;;;;2.03;0.70;;;19.40;99.90;;;;;;4963613;28;20031;-61
2022/09/20 12:13:07;;;;;;;0.85;0.43;;;19.40;99.90;;;;;;4964490;28;20027;-60
2022/09/20 12:15:40;;;;;;;1.15;0.60;;;19.50;99.90;;;;;;4967861;28;20034;-60
2022/09/20 12:18:31;;;;;;;2.38;0.57;;;20.10;99.90;;;;;;4964916;28;20035;-60
2022/09/20 12:21:02;;;;;;;0.57;0.57;;;21.30;99.90;;;;;;4964854;28;20042;-61
2022/09/20 12:23:37;;;;;;;1.33;0.70;;;22.10;96.00;;;;;;4962497;28;20498;-59
2022/09/20 12:26:37;;;;;;;0.98;0.70;;;21.70;96.90;;;;;;4962867;28;20777;-61
2022/09/20 12:29:33;;;;;;;0.77;0.68;;;21.70;96.60;;;;;;4948681;28;20122;-60
2022/09/20 12:32:01;;;;;;;1.17;0.45;;;21.90;97.00;;;;;;4961707;28;20122;-60
2022/09/20 12:34:36;;;;;;;0.70;0.50;;;21.30;97.20;;;;;;4967579;28;20027;-61
2022/09/20 12:37:03;;;;;;;0.88;0.47;;;21.60;96.60;;;;;;4958154;28;20582;-59
2022/09/20 12:39:48;;;;;;;0.63;0.50;;;22.00;96.00;;;;;;4960716;28;20023;-59
2022/09/20 12:42:17;;;;;;;1.10;0.50;;;22.50;93.90;;;;;;4963531;28;20063;-60
2022/09/20 12:44:48;;;;;;;2.13;1.40;;;22.90;91.70;;;;;;4967673;28;20441;-60
2022/09/20 12:47:17;;;;;;;2.40;0.55;;;23.40;91.00;;;;;;4965482;28;20035;-60
2022/09/20 12:53:02;;;;;;;0.70;0.50;;;23.50;89.60;;;;;;4959300;28;20039;-60
2022/09/20 12:55:48;;;;;;;1.02;0.50;;;23.00;88.90;;;;;;4967795;28;20034;-60
2022/09/20 12:58:14;;;;;;;0.32;0.30;;;23.00;90.40;;;;;;4960248;28;20039;-60
2022/09/20 13:00:44;;;;;;;0.70;0.70;;;22.50;89.70;;;;;;4963871;28;20101;-60
2022/09/20 13:03:09;;;;;;;0.47;0.32;;;22.20;92.30;;;;;;4966086;28;20406;-60
2022/09/20 13:05:41;;;;;;;0.43;0.43;;;21.60;92.30;;;;;;4964137;28;20027;-60
2022/09/20 13:08:26;;;;;;;0.35;0.15;;;21.70;92.40;;;;;;4963513;28;20026;-60
2022/09/20 13:11:11;;;;;;;0.30;0.30;;;21.60;92.40;;;;;;4979365;28;20030;-60
2022/09/20 13:13:44;;;;;;;0.30;0.20;;;21.30;92.90;;;;;;4960464;28;20120;-61
2022/09/20 13:16:44;;;;;;;0.30;0.30;;;21.00;93.80;;;;;;4960381;28;20650;-61
2022/09/20 13:19:43;;;;;;;1.10;0.40;;;20.70;94.50;;;;;;4955158;28;20042;-61
2022/09/20 13:22:21;;;;;;;0.98;0.30;;;20.60;94.80;;;;;;4957478;28;20530;-61
2022/09/20 13:24:49;;;;;;;0.82;0.45;;;20.40;96.60;;;;;;4967190;28;20081;-60
2022/09/20 13:27:45;;;;;;;0.73;0.20;;;20.30;96.10;;;;;;4960724;28;20034;-60
2022/09/20 13:30:31;;;;;;;0.38;0.22;;;20.20;98.20;;;;;;4961513;28;20039;-60
2022/09/20 13:33:16;;;;;;;0.68;0.47;;;20.40;98.20;;;;;;4966524;28;20505;-60
2022/09/20 13:35:48;;;;;;;0.40;0.25;;;20.70;97.20;;;;;;4963333;28;20069;-61
2022/09/20 13:38:23;;;;;;;1.27;0.38;;;20.80;95.90;;;;;;4968769;28;20042;-59
2022/09/20 13:40:51;;;;;;;2.83;0.60;;;21.00;96.30;;;;;;4968119;28;20023;-60
2022/09/20 13:43:48;;;;;;;1.77;0.30;;;21.30;95.40;;;;;;4967311;28;20047;-60
2022/09/20 13:46:32;;;;;;;2.83;2.10;;;21.80;94.70;;;;;;4967566;28;20041;-59
2022/09/20 13:49:14;;;;;;;1.23;0.57;;;22.40;93.50;;;;;;4965415;28;20054;-60
2022/09/20 13:51:40;;;;;;;;;;;22.90;91.80;;;;;;4965568;28;20110;-60
2022/09/20 13:54:29;;;;;;;0.40;0.40;;;23.30;89.50;;;;;;4967183;28;20008;-60
2022/09/20 13:57:02;;;;;;;0.82;0.50;;;23.80;85.20;;;;;;4959879;28;20569;-60